createdAt,value
2022-10-26T00:01:56.229Z,94.53
2022-10-26T00:04:25.469Z,94.41
2022-10-26T00:06:54.759Z,94.46
2022-10-26T00:09:24.184Z,94.40
2022-10-26T00:11:55.564Z,94.45
2022-10-26T00:14:25.424Z,94.39
2022-10-26T00:16:54.731Z,94.42
2022-10-26T00:19:24.132Z,94.42
2022-10-26T00:21:54.361Z,94.36
2022-10-26T00:24:23.721Z,94.12
2022-10-26T00:26:54.272Z,94.35
2022-10-26T00:29:23.620Z,94.22
2022-10-26T00:31:52.760Z,94.44
2022-10-26T00:34:21.893Z,94.81
2022-10-26T00:36:50.959Z,94.94
2022-10-26T00:39:20.109Z,94.96
2022-10-26T00:41:49.269Z,94.96
2022-10-26T00:44:58.675Z,94.89
2022-10-26T00:47:41.125Z,95.09
2022-10-26T00:50:17.257Z,94.87
2022-10-26T00:52:46.893Z,95.21
2022-10-26T00:55:21.395Z,95.37
2022-10-26T00:57:52.361Z,94.90
2022-10-26T01:00:23.314Z,94.90
2022-10-26T01:02:56.231Z,94.91
2022-10-26T01:05:27.459Z,95.00
2022-10-26T01:07:56.881Z,95.10
2022-10-26T01:10:27.099Z,94.71
2022-10-26T01:12:59.349Z,94.57
2022-10-26T01:15:46.070Z,94.56
2022-10-26T01:18:26.201Z,94.53
2022-10-26T01:21:41.022Z,94.02
2022-10-26T01:24:47.567Z,93.46
2022-10-26T01:27:29.443Z,93.01
2022-10-26T01:30:33.824Z,93.05
2022-10-26T01:33:20.725Z,92.91
2022-10-26T01:36:01.978Z,91.52
2022-10-26T01:38:41.831Z,91.79
2022-10-26T01:41:18.782Z,88.93
2022-10-26T01:43:54.343Z,90.25
2022-10-26T01:46:28.320Z,90.38
2022-10-26T01:49:05.172Z,89.27
2022-10-26T01:51:35.723Z,89.28
2022-10-26T01:54:05.001Z,89.57
2022-10-26T01:56:40.451Z,89.15
2022-10-26T01:59:41.568Z,88.51
2022-10-26T02:02:43.566Z,88.55
2022-10-26T02:05:41.951Z,87.87
2022-10-26T02:08:42.684Z,89.29
2022-10-26T02:11:24.629Z,88.98
2022-10-26T02:13:58.691Z,89.07
2022-10-26T02:16:38.385Z,89.22
2022-10-26T02:19:17.182Z,89.97
2022-10-26T02:21:51.086Z,89.40
2022-10-26T02:24:22.067Z,90.39
2022-10-26T02:26:54.238Z,89.85
2022-10-26T02:29:25.585Z,90.04
2022-10-26T02:31:56.082Z,90.27
2022-10-26T02:34:29.500Z,90.51
2022-10-26T02:37:02.151Z,90.28
2022-10-26T02:39:35.597Z,89.98
2022-10-26T02:42:08.391Z,90.94
2022-10-26T02:44:44.131Z,90.83
2022-10-26T02:47:14.364Z,90.35
2022-10-26T02:49:45.551Z,90.77
2022-10-26T02:52:24.626Z,90.54
2022-10-26T02:55:00.629Z,91.29
2022-10-26T02:57:35.215Z,90.84
2022-10-26T03:00:05.709Z,90.84
2022-10-26T03:02:34.804Z,92.29
2022-10-26T03:05:15.809Z,92.77
2022-10-26T03:07:45.192Z,92.76
2022-10-26T03:10:14.370Z,93.02
2022-10-26T03:12:43.703Z,92.75
2022-10-26T03:15:13.134Z,93.14
2022-10-26T03:17:42.525Z,93.11
2022-10-26T03:20:13.729Z,93.82
2022-10-26T03:22:42.877Z,92.07
2022-10-26T03:25:12.055Z,92.53
2022-10-26T03:27:41.260Z,92.09
2022-10-26T03:30:11.630Z,90.54
2022-10-26T03:32:40.721Z,91.50
2022-10-26T03:35:10.535Z,91.19
2022-10-26T03:37:41.045Z,91.16
2022-10-26T03:40:12.164Z,90.37
2022-10-26T03:42:42.013Z,89.94
2022-10-26T03:45:12.481Z,90.96
2022-10-26T03:47:46.158Z,90.36
2022-10-26T03:50:17.739Z,91.09
2022-10-26T03:52:49.329Z,89.77
2022-10-26T03:55:19.469Z,90.24
2022-10-26T03:57:48.697Z,91.04
2022-10-26T04:00:19.825Z,91.35
2022-10-26T04:02:56.780Z,91.05
2022-10-26T04:05:27.834Z,91.67
2022-10-26T04:08:00.396Z,91.90
2022-10-26T04:10:29.957Z,91.39
2022-10-26T04:13:01.372Z,91.01
2022-10-26T04:15:30.956Z,90.93
2022-10-26T04:18:01.324Z,91.24
2022-10-26T04:20:31.785Z,91.11
2022-10-26T04:23:04.673Z,90.90
2022-10-26T04:25:34.965Z,90.95
2022-10-26T04:28:06.065Z,89.45
2022-10-26T04:30:36.380Z,88.88
2022-10-26T04:33:05.923Z,87.55
2022-10-26T04:35:35.434Z,87.12
2022-10-26T04:38:08.232Z,86.95
2022-10-26T04:40:37.700Z,86.44
2022-10-26T04:43:07.223Z,85.47
2022-10-26T04:45:36.453Z,86.14
2022-10-26T04:48:08.156Z,85.92
2022-10-26T04:50:38.394Z,85.36
2022-10-26T04:53:10.708Z,84.85
2022-10-26T04:55:39.945Z,86.16
2022-10-26T04:58:09.583Z,86.62
2022-10-26T05:00:38.770Z,86.52
2022-10-26T05:03:09.396Z,85.17
2022-10-26T05:05:38.811Z,85.76
2022-10-26T05:08:09.356Z,85.46
2022-10-26T05:10:38.515Z,84.76
2022-10-26T05:13:07.960Z,84.65
2022-10-26T05:15:37.709Z,85.64
2022-10-26T05:18:09.107Z,85.96
2022-10-26T05:20:38.978Z,84.17
2022-10-26T05:23:13.968Z,84.20
2022-10-26T05:25:43.141Z,83.11
2022-10-26T05:28:14.362Z,82.42
2022-10-26T05:30:45.381Z,81.57
2022-10-26T05:33:15.885Z,81.97
2022-10-26T05:35:45.245Z,82.28
2022-10-26T05:38:19.742Z,81.69
2022-10-26T05:40:49.847Z,81.17
2022-10-26T05:43:19.490Z,81.28
2022-10-26T05:45:50.651Z,80.84
2022-10-26T05:48:19.815Z,81.01
2022-10-26T05:50:49.056Z,80.49
2022-10-26T05:53:19.919Z,81.46
2022-10-26T05:55:49.890Z,80.12
2022-10-26T05:58:19.784Z,79.82
2022-10-26T06:01:11.615Z,79.57
2022-10-26T06:03:59.213Z,79.55
2022-10-26T06:06:31.058Z,79.05
2022-10-26T06:09:02.435Z,78.24
2022-10-26T06:11:32.378Z,78.48
2022-10-26T06:14:03.564Z,78.09
2022-10-26T06:16:43.421Z,76.69
2022-10-26T06:19:28.858Z,75.69
2022-10-26T06:22:17.489Z,76.25
2022-10-26T06:24:57.951Z,76.60
2022-10-26T06:27:40.081Z,75.94
2022-10-26T06:30:11.966Z,76.41
2022-10-26T06:32:42.123Z,76.50
2022-10-26T06:35:36.851Z,75.54
2022-10-26T06:38:11.749Z,75.04
2022-10-26T06:40:47.571Z,75.13
2022-10-26T06:43:26.611Z,75.06
2022-10-26T06:46:08.966Z,75.14
2022-10-26T06:48:51.204Z,75.00
2022-10-26T06:51:21.608Z,74.70
2022-10-26T06:53:58.717Z,75.05
2022-10-26T06:56:29.633Z,75.59
2022-10-26T06:59:08.111Z,75.76
2022-10-26T07:01:37.363Z,75.22
2022-10-26T07:04:06.640Z,75.00
2022-10-26T07:06:38.399Z,75.50
2022-10-26T07:09:08.669Z,75.14
2022-10-26T07:11:39.163Z,75.84
2022-10-26T07:14:08.700Z,75.52
2022-10-26T07:16:37.824Z,76.66
2022-10-26T07:19:07.309Z,75.99
2022-10-26T07:21:36.384Z,76.23
2022-10-26T07:24:06.520Z,75.99
2022-10-26T07:26:35.705Z,75.94
2022-10-26T07:29:06.288Z,76.30
2022-10-26T07:31:35.476Z,75.86
2022-10-26T07:34:04.869Z,75.16
2022-10-26T07:36:36.750Z,75.08
2022-10-26T07:39:06.226Z,75.29
2022-10-26T07:41:36.214Z,75.35
2022-10-26T07:44:07.064Z,75.14
2022-10-26T07:46:36.326Z,74.48
2022-10-26T07:49:05.489Z,74.20
2022-10-26T07:51:34.732Z,73.31
2022-10-26T07:54:03.897Z,73.08
2022-10-26T07:56:33.068Z,72.78
2022-10-26T07:59:02.292Z,72.13
2022-10-26T08:01:33.107Z,71.98
2022-10-26T08:04:02.353Z,72.37
2022-10-26T08:06:31.530Z,72.44
2022-10-26T08:09:00.607Z,72.33
2022-10-26T08:11:29.895Z,72.34
2022-10-26T08:13:59.015Z,72.57
2022-10-26T08:16:28.433Z,71.94
2022-10-26T08:18:59.122Z,72.18
2022-10-26T08:21:39.287Z,72.47
2022-10-26T08:24:09.605Z,72.12
2022-10-26T08:26:38.983Z,72.35
2022-10-26T08:29:08.298Z,72.39
2022-10-26T08:31:37.422Z,72.65
2022-10-26T08:34:07.987Z,72.27
2022-10-26T08:36:37.284Z,72.47
2022-10-26T08:39:06.545Z,72.36
2022-10-26T08:41:41.329Z,72.05
2022-10-26T08:44:27.531Z,71.45
2022-10-26T08:47:01.025Z,71.45
2022-10-26T08:49:39.684Z,70.65
2022-10-26T08:52:18.621Z,71.16
2022-10-26T08:54:53.742Z,70.60
2022-10-26T08:57:28.866Z,70.52
2022-10-26T09:00:03.037Z,70.75
2022-10-26T09:02:32.338Z,70.64
2022-10-26T09:05:05.483Z,70.75
2022-10-26T09:07:50.476Z,70.87
2022-10-26T09:10:38.178Z,70.71
2022-10-26T09:13:17.969Z,70.29
2022-10-26T09:16:03.879Z,70.12
2022-10-26T09:21:38.381Z,68.98
2022-10-26T09:24:15.504Z,68.04
2022-10-26T09:27:00.281Z,67.76
2022-10-26T09:29:36.520Z,67.16
2022-10-26T09:32:11.680Z,67.23
2022-10-26T09:34:47.064Z,67.76
2022-10-26T09:37:22.390Z,67.82
2022-10-26T09:40:07.790Z,68.08
2022-10-26T09:42:45.055Z,68.11
2022-10-26T09:45:22.269Z,68.17
2022-10-26T09:47:55.131Z,67.59
2022-10-26T09:50:30.321Z,66.76
2022-10-26T09:53:00.826Z,66.73
2022-10-26T09:55:31.193Z,66.60
2022-10-26T09:58:08.374Z,66.40
2022-10-26T10:00:39.406Z,66.49
2022-10-26T10:03:21.549Z,66.28
2022-10-26T10:05:52.398Z,66.25
2022-10-26T10:08:26.036Z,66.60
2022-10-26T10:11:01.660Z,66.45
2022-10-26T10:13:34.042Z,66.75
2022-10-26T10:16:11.596Z,66.64
2022-10-26T10:18:42.837Z,66.60
2022-10-26T10:21:14.293Z,65.88
2022-10-26T10:23:54.367Z,65.38
2022-10-26T10:26:23.601Z,65.50
2022-10-26T10:28:59.682Z,65.57
2022-10-26T10:31:34.283Z,65.09
2022-10-26T10:34:18.101Z,65.22
2022-10-26T10:36:47.882Z,65.31
2022-10-26T10:39:41.428Z,64.05
2022-10-26T10:42:22.031Z,62.08
2022-10-26T10:44:56.634Z,60.65
2022-10-26T10:47:28.714Z,59.92
2022-10-26T10:50:02.318Z,56.25
2022-10-26T10:52:34.463Z,53.08
2022-10-26T10:55:19.399Z,51.32
2022-10-26T10:58:09.309Z,50.45
2022-10-26T11:00:39.402Z,49.49
2022-10-26T11:03:38.015Z,49.50
2022-10-26T11:06:15.861Z,48.22
2022-10-26T11:08:51.704Z,48.51
2022-10-26T11:11:28.617Z,48.68
2022-10-26T11:14:04.755Z,48.39
2022-10-26T11:16:38.263Z,48.50
2022-10-26T11:19:19.393Z,48.83
2022-10-26T11:21:54.594Z,49.20
2022-10-26T11:24:31.247Z,48.53
2022-10-26T11:27:13.151Z,48.66
2022-10-26T11:29:49.106Z,48.48
2022-10-26T11:32:23.886Z,48.00
2022-10-26T11:35:01.040Z,46.13
2022-10-26T11:37:37.643Z,45.31
2022-10-26T11:40:22.103Z,44.86
2022-10-26T11:43:01.477Z,44.64
2022-10-26T11:45:35.943Z,45.17
2022-10-26T11:48:15.984Z,45.85
2022-10-26T11:50:50.715Z,45.83
2022-10-26T11:53:23.359Z,47.91
2022-10-26T11:55:54.422Z,50.44
2022-10-26T11:58:28.535Z,52.07
2022-10-26T12:01:03.284Z,52.90
2022-10-26T12:03:38.966Z,52.11
2022-10-26T12:06:08.472Z,51.27
2022-10-26T12:08:42.021Z,50.46
2022-10-26T12:11:36.928Z,48.73
2022-10-26T12:14:21.289Z,47.89
2022-10-26T12:17:01.612Z,46.53
2022-10-26T12:19:40.646Z,46.11
2022-10-26T12:22:13.376Z,45.81
2022-10-26T12:24:46.978Z,45.46
2022-10-26T12:27:34.512Z,44.77
2022-10-26T12:30:31.046Z,43.49
2022-10-26T12:33:02.004Z,44.14
2022-10-26T12:35:41.836Z,43.84
2022-10-26T12:39:00.955Z,43.74
2022-10-26T12:41:30.596Z,43.97
2022-10-26T12:44:08.992Z,44.33
2022-10-26T12:46:41.215Z,44.29
2022-10-26T12:49:55.180Z,45.37
2022-10-26T12:52:44.062Z,45.74
2022-10-26T12:56:00.175Z,46.18
2022-10-26T12:59:20.981Z,46.20
2022-10-26T13:02:32.827Z,46.32
2022-10-26T13:05:38.383Z,45.83
2022-10-26T13:08:11.525Z,45.78
2022-10-26T13:10:48.268Z,46.07
2022-10-26T13:13:25.199Z,45.86
2022-10-26T13:15:56.269Z,46.18
2022-10-26T13:18:27.748Z,46.76
2022-10-26T13:21:08.415Z,47.06
2022-10-26T13:23:40.959Z,47.42
2022-10-26T13:26:12.966Z,47.95
2022-10-26T13:29:01.335Z,48.96
2022-10-26T13:32:00.085Z,49.17
2022-10-26T13:34:33.253Z,49.53
2022-10-26T13:37:22.946Z,50.04
2022-10-26T13:39:55.967Z,49.87
2022-10-26T13:42:29.644Z,50.13
2022-10-26T13:45:06.763Z,50.21
2022-10-26T13:47:46.093Z,50.38
2022-10-26T13:50:20.668Z,50.98
2022-10-26T13:52:53.770Z,52.14
2022-10-26T13:55:27.774Z,53.27
2022-10-26T13:58:16.529Z,54.76
2022-10-26T14:01:06.425Z,54.54
2022-10-26T14:03:35.618Z,53.59
2022-10-26T14:06:14.825Z,53.12
2022-10-26T14:08:47.595Z,52.71
2022-10-26T14:11:22.138Z,52.44
2022-10-26T14:13:52.651Z,52.28
2022-10-26T14:16:25.882Z,51.86
2022-10-26T14:18:55.105Z,49.78
2022-10-26T14:21:25.984Z,50.11
2022-10-26T14:23:57.614Z,51.99
2022-10-26T14:26:29.627Z,54.63
2022-10-26T14:29:01.069Z,57.68
2022-10-26T14:31:32.697Z,58.66
2022-10-26T14:34:05.886Z,61.27
2022-10-26T14:36:41.744Z,65.14
2022-10-26T14:39:21.625Z,66.14
2022-10-26T14:41:51.914Z,66.94
2022-10-26T14:44:25.167Z,68.06
2022-10-26T14:46:55.523Z,69.46
2022-10-26T14:49:28.758Z,70.40
2022-10-26T14:52:01.416Z,72.28
2022-10-26T14:54:32.282Z,73.71
2022-10-26T14:57:08.635Z,72.89
2022-10-26T14:59:37.957Z,73.83
2022-10-26T15:02:20.992Z,73.13
2022-10-26T15:05:02.966Z,72.96
2022-10-26T15:07:43.668Z,72.26
2022-10-26T15:10:47.333Z,72.56
2022-10-26T15:13:32.404Z,72.75
2022-10-26T15:16:17.308Z,72.82
2022-10-26T15:18:51.378Z,74.18
2022-10-26T15:21:27.158Z,75.45
2022-10-26T15:23:59.152Z,73.48
2022-10-26T15:26:30.045Z,73.04
2022-10-26T15:28:59.445Z,72.31
2022-10-26T15:31:35.150Z,72.27
2022-10-26T15:34:15.915Z,72.29
2022-10-26T15:36:45.109Z,72.64
2022-10-26T15:39:15.667Z,72.16
2022-10-26T15:41:48.452Z,72.56
2022-10-26T15:44:22.597Z,71.49
2022-10-26T15:46:52.125Z,70.95
2022-10-26T15:49:22.582Z,71.36
2022-10-26T15:51:51.959Z,72.07
2022-10-26T15:54:22.892Z,73.20
2022-10-26T15:56:52.266Z,72.95
2022-10-26T15:59:21.740Z,74.02
2022-10-26T16:01:52.547Z,73.93
2022-10-26T16:04:21.903Z,72.94
2022-10-26T16:06:51.317Z,72.76
2022-10-26T16:09:22.114Z,71.79
2022-10-26T16:11:51.354Z,71.37
2022-10-26T16:14:20.516Z,70.41
2022-10-26T16:16:49.736Z,69.59
2022-10-26T16:19:30.558Z,69.69
2022-10-26T16:22:00.596Z,68.67
2022-10-26T16:24:32.609Z,68.63
2022-10-26T16:27:01.753Z,68.23
2022-10-26T16:29:32.265Z,68.13
2022-10-26T16:32:01.447Z,67.71
2022-10-26T16:34:30.574Z,67.58
2022-10-26T16:36:59.764Z,67.59
2022-10-26T16:39:30.199Z,67.24
2022-10-26T16:41:59.360Z,67.98
2022-10-26T16:44:28.449Z,67.65
2022-10-26T16:46:57.568Z,67.46
2022-10-26T16:49:26.627Z,67.16
2022-10-26T16:51:57.553Z,66.96
2022-10-26T16:54:26.705Z,67.00
2022-10-26T16:56:57.197Z,66.79
2022-10-26T16:59:26.394Z,66.53
2022-10-26T17:01:55.703Z,66.59
2022-10-26T17:04:25.073Z,66.87
2022-10-26T17:06:54.181Z,67.01
2022-10-26T17:09:23.283Z,67.02
2022-10-26T17:11:54.205Z,66.92
2022-10-26T17:14:26.158Z,66.95
2022-10-26T17:16:55.262Z,67.37
2022-10-26T17:19:24.381Z,67.35
2022-10-26T17:21:53.538Z,67.18
2022-10-26T17:24:22.849Z,67.58
2022-10-26T17:26:51.985Z,67.65
2022-10-26T17:29:21.194Z,67.35
2022-10-26T17:31:51.835Z,67.58
2022-10-26T17:34:20.951Z,67.17
2022-10-26T17:36:50.057Z,66.96
2022-10-26T17:39:20.126Z,67.09
2022-10-26T17:41:49.237Z,66.80
2022-10-26T17:44:18.398Z,66.78
2022-10-26T17:46:47.853Z,66.57
2022-10-26T17:49:19.244Z,66.14
2022-10-26T17:51:50.391Z,66.32
2022-10-26T17:54:20.016Z,66.32
2022-10-26T17:56:49.278Z,66.25
2022-10-26T17:59:19.227Z,66.31
2022-10-26T18:01:48.472Z,66.10
2022-10-26T18:04:19.226Z,65.85
2022-10-26T18:06:48.396Z,65.98
2022-10-26T18:09:17.589Z,65.92
2022-10-26T18:11:47.933Z,65.84
2022-10-26T18:14:18.905Z,65.56
2022-10-26T18:16:48.775Z,65.90
2022-10-26T18:19:19.274Z,65.96
2022-10-26T18:21:48.469Z,65.88
2022-10-26T18:24:17.656Z,66.09
2022-10-26T18:26:46.903Z,66.03
2022-10-26T18:29:16.304Z,66.00
2022-10-26T18:31:46.246Z,65.62
2022-10-26T18:34:15.369Z,65.83
2022-10-26T18:36:46.280Z,65.60
2022-10-26T18:39:15.490Z,66.27
2022-10-26T18:41:44.921Z,66.15
2022-10-26T18:44:14.255Z,66.69
2022-10-26T18:46:48.055Z,66.54
2022-10-26T18:49:19.454Z,67.17
2022-10-26T18:51:51.035Z,68.02
2022-10-26T18:54:20.314Z,67.92
2022-10-26T18:56:49.701Z,68.27
2022-10-26T18:59:18.965Z,68.09
2022-10-26T19:01:50.635Z,68.13
2022-10-26T19:04:20.368Z,68.29
2022-10-26T19:06:50.952Z,68.48
2022-10-26T19:09:21.297Z,68.71
2022-10-26T19:11:50.656Z,68.83
2022-10-26T19:14:19.795Z,68.90
2022-10-26T19:16:52.440Z,68.87
2022-10-26T19:19:22.432Z,68.88
2022-10-26T19:21:53.121Z,68.93
2022-10-26T19:24:24.663Z,68.78
2022-10-26T19:26:54.807Z,69.58
2022-10-26T19:29:24.134Z,69.81
2022-10-26T19:31:54.243Z,69.65
2022-10-26T19:34:23.751Z,69.68
2022-10-26T19:36:54.242Z,70.40
2022-10-26T19:39:24.628Z,69.90
2022-10-26T19:41:53.807Z,70.40
2022-10-26T19:44:25.333Z,70.31
2022-10-26T19:46:54.962Z,70.21
2022-10-26T19:49:24.355Z,70.07
2022-10-26T19:51:58.044Z,69.85
2022-10-26T19:54:27.201Z,69.75
2022-10-26T19:56:56.492Z,69.53
2022-10-26T19:59:26.903Z,69.81
2022-10-26T20:01:57.776Z,69.87
2022-10-26T20:04:27.106Z,69.98
2022-10-26T20:06:57.888Z,69.89
2022-10-26T20:09:27.745Z,70.22
2022-10-26T20:11:57.512Z,69.58
2022-10-26T20:14:26.953Z,69.02
2022-10-26T20:16:56.053Z,68.95
2022-10-26T20:19:25.390Z,68.94
2022-10-26T20:21:54.971Z,69.26
2022-10-26T20:24:25.960Z,69.23
2022-10-26T20:26:55.128Z,69.10
2022-10-26T20:29:24.573Z,69.20
2022-10-26T20:31:56.164Z,69.37
2022-10-26T20:34:25.692Z,69.20
2022-10-26T20:36:54.866Z,69.86
2022-10-26T20:39:26.612Z,69.42
2022-10-26T20:41:56.700Z,69.52
2022-10-26T20:44:32.882Z,69.35
2022-10-26T20:47:02.812Z,69.48
2022-10-26T20:49:32.827Z,69.27
2022-10-26T20:52:20.813Z,69.03
2022-10-26T20:55:01.118Z,68.94
2022-10-26T20:57:33.830Z,69.02
2022-10-26T21:00:05.821Z,68.61
2022-10-26T21:02:35.072Z,68.71
2022-10-26T21:05:04.794Z,68.68
2022-10-26T21:07:33.983Z,68.74
2022-10-26T21:10:04.937Z,68.74
2022-10-26T21:12:34.190Z,69.19
2022-10-26T21:15:03.491Z,69.15
2022-10-26T21:17:34.591Z,69.28
2022-10-26T21:20:03.973Z,69.32
2022-10-26T21:22:33.192Z,69.52
2022-10-26T21:25:03.981Z,69.78
2022-10-26T21:27:33.285Z,69.38
2022-10-26T21:30:02.518Z,69.30
2022-10-26T21:32:31.838Z,69.51
2022-10-26T21:35:01.001Z,69.66
2022-10-26T21:37:30.375Z,69.74
2022-10-26T21:40:00.446Z,69.83
2022-10-26T21:42:31.891Z,69.61
2022-10-26T21:45:01.154Z,69.71
2022-10-26T21:47:30.441Z,69.46
2022-10-26T21:49:59.661Z,69.28
2022-10-26T21:52:28.843Z,69.31
2022-10-26T21:54:57.941Z,69.35
2022-10-26T21:57:27.174Z,69.09
2022-10-26T21:59:57.761Z,69.00
2022-10-26T22:02:26.944Z,69.43
2022-10-26T22:04:56.119Z,69.02
2022-10-26T22:07:25.322Z,68.90
2022-10-26T22:10:09.654Z,68.92
2022-10-26T22:12:39.590Z,69.04
2022-10-26T22:15:11.634Z,69.00
2022-10-26T22:17:41.381Z,69.03
2022-10-26T22:20:13.072Z,68.85
2022-10-26T22:22:42.391Z,68.55
2022-10-26T22:25:12.394Z,68.73
2022-10-26T22:27:41.635Z,68.57
2022-10-26T22:30:13.993Z,69.31
2022-10-26T22:32:43.241Z,69.51
2022-10-26T22:35:28.658Z,69.30
2022-10-26T22:37:59.207Z,69.44
2022-10-26T22:40:28.400Z,69.47
2022-10-26T22:42:57.557Z,69.38
2022-10-26T22:45:28.055Z,69.29
2022-10-26T22:47:57.302Z,69.21
2022-10-26T22:50:26.540Z,69.29
2022-10-26T22:52:55.642Z,69.63
2022-10-26T22:55:24.843Z,69.87
2022-10-26T22:57:55.845Z,71.01
2022-10-26T23:00:25.097Z,71.09
2022-10-26T23:02:55.629Z,70.98
2022-10-26T23:05:24.810Z,71.15
2022-10-26T23:07:54.053Z,71.14
2022-10-26T23:10:23.418Z,70.79
2022-10-26T23:12:53.054Z,71.02
2022-10-26T23:15:22.291Z,70.98
2022-10-26T23:17:51.696Z,71.23
2022-10-26T23:20:22.488Z,71.35
2022-10-26T23:22:52.021Z,71.29
2022-10-26T23:25:21.546Z,71.31
2022-10-26T23:27:50.714Z,71.26
2022-10-26T23:30:20.038Z,71.22
2022-10-26T23:32:49.547Z,71.23
2022-10-26T23:35:19.151Z,71.30
2022-10-26T23:37:49.812Z,71.44
2022-10-26T23:40:18.982Z,72.18
2022-10-26T23:42:48.281Z,71.59
2022-10-26T23:45:17.695Z,71.74
2022-10-26T23:47:47.594Z,71.65
2022-10-26T23:50:17.417Z,71.68
2022-10-26T23:52:50.319Z,71.98
2022-10-26T23:55:19.436Z,72.22
2022-10-26T23:57:48.789Z,72.22
